sensor_id;sensor_type;location;lat;lon;timestamp;P1;durP1;ratioP1;P2;durP2;ratioP2
5345;SDS011;2695;49.444;11.054;2023-02-15T00:00:05;13.90;;;8.90;;
5345;SDS011;2695;49.444;11.054;2023-02-15T00:02:36;20.90;;;11.87;;
5345;SDS011;2695;49.444;11.054;2023-02-15T00:05:05;17.60;;;10.90;;
5345;SDS011;2695;49.444;11.054;2023-02-15T00:07:34;22.10;;;11.33;;
5345;SDS011;2695;49.444;11.054;2023-02-15T00:10:02;16.30;;;10.37;;
5345;SDS011;2695;49.444;11.054;2023-02-15T00:12:31;20.17;;;10.50;;
5345;SDS011;2695;49.444;11.054;2023-02-15T00:14:59;17.83;;;10.87;;
5345;SDS011;2695;49.444;11.054;2023-02-15T00:17:29;16.00;;;8.83;;
5345;SDS011;2695;49.444;11.054;2023-02-15T00:19:57;17.97;;;9.90;;
5345;SDS011;2695;49.444;11.054;2023-02-15T00:22:25;17.80;;;11.07;;
5345;SDS011;2695;49.444;11.054;2023-02-15T00:24:53;18.07;;;11.30;;
5345;SDS011;2695;49.444;11.054;2023-02-15T00:27:21;16.07;;;10.43;;
5345;SDS011;2695;49.444;11.054;2023-02-15T00:29:49;18.80;;;11.77;;
5345;SDS011;2695;49.444;11.054;2023-02-15T00:32:17;18.37;;;10.40;;
5345;SDS011;2695;49.444;11.054;2023-02-15T00:34:46;15.93;;;10.00;;
5345;SDS011;2695;49.444;11.054;2023-02-15T00:37:15;16.10;;;10.03;;
5345;SDS011;2695;49.444;11.054;2023-02-15T00:39:43;18.33;;;10.63;;
5345;SDS011;2695;49.444;11.054;2023-02-15T00:42:10;19.27;;;10.30;;
5345;SDS011;2695;49.444;11.054;2023-02-15T00:44:39;15.80;;;10.23;;
5345;SDS011;2695;49.444;11.054;2023-02-15T00:47:07;13.90;;;9.40;;
5345;SDS011;2695;49.444;11.054;2023-02-15T00:49:35;15.90;;;10.07;;
5345;SDS011;2695;49.444;11.054;2023-02-15T00:52:04;16.20;;;10.20;;
5345;SDS011;2695;49.444;11.054;2023-02-15T00:54:32;19.17;;;10.57;;
5345;SDS011;2695;49.444;11.054;2023-02-15T00:57:01;16.20;;;9.87;;
5345;SDS011;2695;49.444;11.054;2023-02-15T00:59:29;15.40;;;9.50;;
5345;SDS011;2695;49.444;11.054;2023-02-15T01:01:59;16.27;;;9.80;;
5345;SDS011;2695;49.444;11.054;2023-02-15T01:04:34;16.90;;;9.23;;
5345;SDS011;2695;49.444;11.054;2023-02-15T01:07:02;18.10;;;10.83;;
5345;SDS011;2695;49.444;11.054;2023-02-15T01:09:31;20.30;;;11.50;;
5345;SDS011;2695;49.444;11.054;2023-02-15T01:11:59;17.87;;;9.93;;
5345;SDS011;2695;49.444;11.054;2023-02-15T01:14:28;16.33;;;10.07;;
5345;SDS011;2695;49.444;11.054;2023-02-15T01:16:56;13.13;;;7.60;;
5345;SDS011;2695;49.444;11.054;2023-02-15T01:19:29;20.27;;;10.80;;
5345;SDS011;2695;49.444;11.054;2023-02-15T01:21:57;18.77;;;10.60;;
5345;SDS011;2695;49.444;11.054;2023-02-15T01:24:25;16.00;;;9.53;;
5345;SDS011;2695;49.444;11.054;2023-02-15T01:26:54;17.40;;;9.93;;
5345;SDS011;2695;49.444;11.054;2023-02-15T01:29:22;17.57;;;10.60;;
5345;SDS011;2695;49.444;11.054;2023-02-15T01:31:50;17.50;;;11.00;;
5345;SDS011;2695;49.444;11.054;2023-02-15T01:34:18;16.10;;;10.40;;
5345;SDS011;2695;49.444;11.054;2023-02-15T01:36:46;17.07;;;10.03;;
5345;SDS011;2695;49.444;11.054;2023-02-15T01:39:15;16.93;;;9.67;;
5345;SDS011;2695;49.444;11.054;2023-02-15T01:41:43;14.87;;;9.10;;
5345;SDS011;2695;49.444;11.054;2023-02-15T01:47:19;18.73;;;10.70;;
5345;SDS011;2695;49.444;11.054;2023-02-15T01:49:58;19.43;;;10.80;;
5345;SDS011;2695;49.444;11.054;2023-02-15T01:52:30;20.83;;;12.00;;
5345;SDS011;2695;49.444;11.054;2023-02-15T01:54:59;17.30;;;9.77;;
5345;SDS011;2695;49.444;11.054;2023-02-15T01:57:28;19.63;;;11.87;;
5345;SDS011;2695;49.444;11.054;2023-02-15T01:59:58;19.83;;;11.40;;
5345;SDS011;2695;49.444;11.054;2023-02-15T02:02:29;17.67;;;10.77;;
5345;SDS011;2695;49.444;11.054;2023-02-15T02:04:58;20.07;;;11.73;;
5345;SDS011;2695;49.444;11.054;2023-02-15T02:07:29;17.10;;;10.30;;
5345;SDS011;2695;49.444;11.054;2023-02-15T02:10:02;20.77;;;10.83;;
5345;SDS011;2695;49.444;11.054;2023-02-15T02:12:31;20.33;;;10.70;;
5345;SDS011;2695;49.444;11.054;2023-02-15T02:15:02;18.37;;;10.03;;
5345;SDS011;2695;49.444;11.054;2023-02-15T02:17:35;16.83;;;10.60;;
5345;SDS011;2695;49.444;11.054;2023-02-15T02:20:25;19.90;;;11.17;;
5345;SDS011;2695;49.444;11.054;2023-02-15T02:23:15;17.37;;;10.70;;
5345;SDS011;2695;49.444;11.054;2023-02-15T02:29:05;14.17;;;8.97;;
5345;SDS011;2695;49.444;11.054;2023-02-15T02:32:09;16.90;;;10.50;;
5345;SDS011;2695;49.444;11.054;2023-02-15T02:34:58;19.17;;;10.30;;
5345;SDS011;2695;49.444;11.054;2023-02-15T02:37:33;17.27;;;9.97;;
5345;SDS011;2695;49.444;11.054;2023-02-15T02:40:11;14.90;;;9.50;;
5345;SDS011;2695;49.444;11.054;2023-02-15T02:42:47;14.50;;;9.20;;
5345;SDS011;2695;49.444;11.054;2023-02-15T02:45:21;17.93;;;10.57;;
5345;SDS011;2695;49.444;11.054;2023-02-15T02:47:56;16.77;;;9.67;;
5345;SDS011;2695;49.444;11.054;2023-02-15T02:53:28;17.20;;;9.83;;
5345;SDS011;2695;49.444;11.054;2023-02-15T02:55:58;16.53;;;9.17;;
5345;SDS011;2695;49.444;11.054;2023-02-15T02:58:34;15.33;;;9.87;;
5345;SDS011;2695;49.444;11.054;2023-02-15T03:01:06;19.57;;;9.73;;
5345;SDS011;2695;49.444;11.054;2023-02-15T03:03:40;18.27;;;9.60;;
5345;SDS011;2695;49.444;11.054;2023-02-15T03:06:12;18.63;;;10.27;;
5345;SDS011;2695;49.444;11.054;2023-02-15T03:08:47;19.70;;;10.00;;
5345;SDS011;2695;49.444;11.054;2023-02-15T03:11:18;16.90;;;9.67;;
5345;SDS011;2695;49.444;11.054;2023-02-15T03:13:46;18.10;;;10.37;;
5345;SDS011;2695;49.444;11.054;2023-02-15T03:16:16;17.60;;;9.20;;
5345;SDS011;2695;49.444;11.054;2023-02-15T03:18:55;15.50;;;9.80;;
5345;SDS011;2695;49.444;11.054;2023-02-15T03:21:29;17.00;;;8.90;;
5345;SDS011;2695;49.444;11.054;2023-02-15T03:24:03;15.43;;;8.43;;
5345;SDS011;2695;49.444;11.054;2023-02-15T03:26:36;18.77;;;9.63;;
5345;SDS011;2695;49.444;11.054;2023-02-15T03:29:06;14.07;;;8.70;;
5345;SDS011;2695;49.444;11.054;2023-02-15T03:31:36;17.13;;;9.80;;
5345;SDS011;2695;49.444;11.054;2023-02-15T03:34:09;15.37;;;8.30;;
5345;SDS011;2695;49.444;11.054;2023-02-15T03:36:41;15.20;;;7.60;;
5345;SDS011;2695;49.444;11.054;2023-02-15T03:39:17;14.23;;;8.47;;
5345;SDS011;2695;49.444;11.054;2023-02-15T03:41:49;15.53;;;9.07;;
5345;SDS011;2695;49.444;11.054;2023-02-15T03:44:24;14.53;;;8.77;;
5345;SDS011;2695;49.444;11.054;2023-02-15T03:46:56;17.73;;;9.87;;
5345;SDS011;2695;49.444;11.054;2023-02-15T03:49:32;17.70;;;10.07;;
5345;SDS011;2695;49.444;11.054;2023-02-15T03:52:07;18.13;;;10.00;;
5345;SDS011;2695;49.444;11.054;2023-02-15T03:54:39;14.63;;;8.40;;
5345;SDS011;2695;49.444;11.054;2023-02-15T03:57:16;14.10;;;8.37;;
5345;SDS011;2695;49.444;11.054;2023-02-15T04:00:06;13.30;;;7.63;;
5345;SDS011;2695;49.444;11.054;2023-02-15T04:03:04;14.97;;;7.93;;
5345;SDS011;2695;49.444;11.054;2023-02-15T04:05:39;19.30;;;8.83;;
5345;SDS011;2695;49.444;11.054;2023-02-15T04:08:07;13.97;;;7.70;;
5345;SDS011;2695;49.444;11.054;2023-02-15T04:10:37;13.90;;;8.60;;
5345;SDS011;2695;49.444;11.054;2023-02-15T04:13:20;13.43;;;7.70;;
5345;SDS011;2695;49.444;11.054;2023-02-15T04:15:49;13.17;;;7.87;;
5345;SDS011;2695;49.444;11.054;2023-02-15T04:18:34;12.10;;;7.43;;
5345;SDS011;2695;49.444;11.054;2023-02-15T04:21:21;13.47;;;7.27;;
5345;SDS011;2695;49.444;11.054;2023-02-15T04:24:08;15.43;;;7.93;;
5345;SDS011;2695;49.444;11.054;2023-02-15T04:26:55;13.97;;;7.83;;
5345;SDS011;2695;49.444;11.054;2023-02-15T04:29:24;13.90;;;8.13;;
5345;SDS011;2695;49.444;11.054;2023-02-15T04:31:53;13.70;;;8.40;;
5345;SDS011;2695;49.444;11.054;2023-02-15T04:34:22;13.70;;;8.47;;
5345;SDS011;2695;49.444;11.054;2023-02-15T04:36:51;12.03;;;6.90;;
5345;SDS011;2695;49.444;11.054;2023-02-15T04:39:19;13.10;;;7.93;;
5345;SDS011;2695;49.444;11.054;2023-02-15T04:41:47;14.77;;;8.80;;
5345;SDS011;2695;49.444;11.054;2023-02-15T04:44:16;18.53;;;9.40;;
5345;SDS011;2695;49.444;11.054;2023-02-15T04:46:44;16.03;;;7.87;;
5345;SDS011;2695;49.444;11.054;2023-02-15T04:49:12;14.40;;;7.90;;
5345;SDS011;2695;49.444;11.054;2023-02-15T04:51:40;15.73;;;8.97;;
5345;SDS011;2695;49.444;11.054;2023-02-15T04:54:08;14.00;;;9.43;;
5345;SDS011;2695;49.444;11.054;2023-02-15T04:56:36;17.57;;;9.40;;
5345;SDS011;2695;49.444;11.054;2023-02-15T04:59:05;15.47;;;8.30;;
5345;SDS011;2695;49.444;11.054;2023-02-15T05:01:34;16.80;;;9.73;;
5345;SDS011;2695;49.444;11.054;2023-02-15T05:04:02;17.30;;;8.93;;
5345;SDS011;2695;49.444;11.054;2023-02-15T05:06:30;13.50;;;7.90;;
5345;SDS011;2695;49.444;11.054;2023-02-15T05:08:59;15.37;;;9.50;;
5345;SDS011;2695;49.444;11.054;2023-02-15T05:11:27;17.20;;;9.40;;
5345;SDS011;2695;49.444;11.054;2023-02-15T05:13:55;17.30;;;10.27;;
5345;SDS011;2695;49.444;11.054;2023-02-15T05:16:23;14.80;;;9.03;;
5345;SDS011;2695;49.444;11.054;2023-02-15T05:18:53;18.27;;;9.93;;
5345;SDS011;2695;49.444;11.054;2023-02-15T05:21:21;17.17;;;10.10;;
5345;SDS011;2695;49.444;11.054;2023-02-15T05:23:49;15.60;;;9.40;;
5345;SDS011;2695;49.444;11.054;2023-02-15T05:26:18;15.17;;;9.17;;
5345;SDS011;2695;49.444;11.054;2023-02-15T05:29:04;16.50;;;10.23;;
5345;SDS011;2695;49.444;11.054;2023-02-15T05:31:33;14.03;;;8.50;;
5345;SDS011;2695;49.444;11.054;2023-02-15T05:34:03;18.17;;;9.30;;
5345;SDS011;2695;49.444;11.054;2023-02-15T05:36:31;13.70;;;8.17;;
5345;SDS011;2695;49.444;11.054;2023-02-15T05:39:00;19.70;;;11.20;;
5345;SDS011;2695;49.444;11.054;2023-02-15T05:41:30;16.00;;;10.13;;
5345;SDS011;2695;49.444;11.054;2023-02-15T05:43:58;16.23;;;10.37;;
5345;SDS011;2695;49.444;11.054;2023-02-15T05:46:26;16.00;;;9.87;;
5345;SDS011;2695;49.444;11.054;2023-02-15T05:48:54;19.40;;;10.20;;
5345;SDS011;2695;49.444;11.054;2023-02-15T05:51:24;19.50;;;9.97;;
5345;SDS011;2695;49.444;11.054;2023-02-15T05:53:52;17.50;;;9.87;;
5345;SDS011;2695;49.444;11.054;2023-02-15T05:56:20;18.43;;;10.67;;
5345;SDS011;2695;49.444;11.054;2023-02-15T05:58:48;18.93;;;10.00;;
5345;SDS011;2695;49.444;11.054;2023-02-15T06:01:17;20.67;;;10.53;;
5345;SDS011;2695;49.444;11.054;2023-02-15T06:03:48;18.83;;;10.00;;
5345;SDS011;2695;49.444;11.054;2023-02-15T06:06:17;17.47;;;10.30;;
5345;SDS011;2695;49.444;11.054;2023-02-15T06:08:46;18.40;;;10.00;;
5345;SDS011;2695;49.444;11.054;2023-02-15T06:11:14;22.53;;;12.10;;
5345;SDS011;2695;49.444;11.054;2023-02-15T06:13:45;16.90;;;10.40;;
5345;SDS011;2695;49.444;11.054;2023-02-15T06:16:13;16.83;;;9.40;;
5345;SDS011;2695;49.444;11.054;2023-02-15T06:18:42;19.27;;;10.80;;
5345;SDS011;2695;49.444;11.054;2023-02-15T06:21:10;17.03;;;10.90;;
5345;SDS011;2695;49.444;11.054;2023-02-15T06:23:38;18.00;;;10.20;;
5345;SDS011;2695;49.444;11.054;2023-02-15T06:26:08;14.50;;;7.53;;
5345;SDS011;2695;49.444;11.054;2023-02-15T06:28:36;17.03;;;10.30;;
5345;SDS011;2695;49.444;11.054;2023-02-15T06:31:05;16.17;;;9.40;;
5345;SDS011;2695;49.444;11.054;2023-02-15T06:33:33;20.73;;;11.10;;
5345;SDS011;2695;49.444;11.054;2023-02-15T06:36:01;19.10;;;11.20;;
5345;SDS011;2695;49.444;11.054;2023-02-15T06:38:30;21.90;;;11.30;;
5345;SDS011;2695;49.444;11.054;2023-02-15T06:40:58;17.70;;;9.70;;
5345;SDS011;2695;49.444;11.054;2023-02-15T06:43:27;20.00;;;10.53;;
5345;SDS011;2695;49.444;11.054;2023-02-15T06:46:00;25.47;;;10.40;;
5345;SDS011;2695;49.444;11.054;2023-02-15T06:48:34;18.93;;;10.33;;
5345;SDS011;2695;49.444;11.054;2023-02-15T06:51:04;20.90;;;10.37;;
5345;SDS011;2695;49.444;11.054;2023-02-15T06:53:32;22.30;;;11.27;;
5345;SDS011;2695;49.444;11.054;2023-02-15T06:56:02;17.57;;;9.07;;
5345;SDS011;2695;49.444;11.054;2023-02-15T06:58:34;17.03;;;9.63;;
5345;SDS011;2695;49.444;11.054;2023-02-15T07:01:02;20.47;;;11.03;;
5345;SDS011;2695;49.444;11.054;2023-02-15T07:03:31;18.87;;;9.60;;
5345;SDS011;2695;49.444;11.054;2023-02-15T07:06:00;15.30;;;8.80;;
5345;SDS011;2695;49.444;11.054;2023-02-15T07:08:32;20.80;;;10.47;;
5345;SDS011;2695;49.444;11.054;2023-02-15T07:11:00;18.93;;;10.30;;
5345;SDS011;2695;49.444;11.054;2023-02-15T07:13:43;18.97;;;11.27;;
5345;SDS011;2695;49.444;11.054;2023-02-15T07:16:12;11.53;;;7.10;;
5345;SDS011;2695;49.444;11.054;2023-02-15T07:18:41;14.83;;;7.60;;
5345;SDS011;2695;49.444;11.054;2023-02-15T07:21:09;8.20;;;4.70;;
5345;SDS011;2695;49.444;11.054;2023-02-15T07:23:37;18.13;;;9.47;;
5345;SDS011;2695;49.444;11.054;2023-02-15T07:26:07;19.33;;;9.37;;
5345;SDS011;2695;49.444;11.054;2023-02-15T07:28:35;18.93;;;10.13;;
5345;SDS011;2695;49.444;11.054;2023-02-15T07:31:04;17.83;;;10.33;;
5345;SDS011;2695;49.444;11.054;2023-02-15T07:33:33;13.67;;;8.87;;
5345;SDS011;2695;49.444;11.054;2023-02-15T07:36:03;15.87;;;9.13;;
5345;SDS011;2695;49.444;11.054;2023-02-15T07:38:32;19.57;;;10.17;;
5345;SDS011;2695;49.444;11.054;2023-02-15T07:41:02;18.20;;;10.43;;
5345;SDS011;2695;49.444;11.054;2023-02-15T07:43:32;12.97;;;6.70;;
5345;SDS011;2695;49.444;11.054;2023-02-15T07:46:06;13.23;;;7.90;;
5345;SDS011;2695;49.444;11.054;2023-02-15T07:48:36;21.60;;;8.33;;
5345;SDS011;2695;49.444;11.054;2023-02-15T07:51:05;15.23;;;8.70;;
5345;SDS011;2695;49.444;11.054;2023-02-15T07:53:35;18.80;;;9.37;;
5345;SDS011;2695;49.444;11.054;2023-02-15T07:56:04;17.10;;;9.50;;
5345;SDS011;2695;49.444;11.054;2023-02-15T07:58:34;18.90;;;10.47;;
5345;SDS011;2695;49.444;11.054;2023-02-15T08:01:21;16.30;;;8.57;;
5345;SDS011;2695;49.444;11.054;2023-02-15T08:03:50;19.90;;;10.10;;
5345;SDS011;2695;49.444;11.054;2023-02-15T08:06:19;19.20;;;10.33;;
5345;SDS011;2695;49.444;11.054;2023-02-15T08:08:48;19.53;;;11.00;;
5345;SDS011;2695;49.444;11.054;2023-02-15T08:11:17;21.10;;;11.53;;
5345;SDS011;2695;49.444;11.054;2023-02-15T08:13:55;19.60;;;10.23;;
5345;SDS011;2695;49.444;11.054;2023-02-15T08:16:28;20.37;;;10.43;;
5345;SDS011;2695;49.444;11.054;2023-02-15T08:18:58;20.97;;;12.10;;
5345;SDS011;2695;49.444;11.054;2023-02-15T08:21:28;22.20;;;10.83;;
5345;SDS011;2695;49.444;11.054;2023-02-15T08:23:57;22.10;;;11.77;;
5345;SDS011;2695;49.444;11.054;2023-02-15T08:26:26;21.57;;;11.90;;
5345;SDS011;2695;49.444;11.054;2023-02-15T08:28:56;19.50;;;11.10;;
5345;SDS011;2695;49.444;11.054;2023-02-15T08:31:24;20.37;;;10.90;;
5345;SDS011;2695;49.444;11.054;2023-02-15T08:33:55;19.60;;;9.90;;
5345;SDS011;2695;49.444;11.054;2023-02-15T08:36:24;23.13;;;11.10;;
5345;SDS011;2695;49.444;11.054;2023-02-15T08:38:53;16.10;;;9.70;;
5345;SDS011;2695;49.444;11.054;2023-02-15T08:41:22;18.53;;;9.57;;
5345;SDS011;2695;49.444;11.054;2023-02-15T08:43:52;16.10;;;10.00;;
5345;SDS011;2695;49.444;11.054;2023-02-15T08:46:22;15.03;;;8.07;;
5345;SDS011;2695;49.444;11.054;2023-02-15T08:48:51;17.50;;;10.03;;
5345;SDS011;2695;49.444;11.054;2023-02-15T08:51:21;18.80;;;10.27;;
5345;SDS011;2695;49.444;11.054;2023-02-15T08:53:51;20.00;;;10.50;;
5345;SDS011;2695;49.444;11.054;2023-02-15T08:56:21;18.50;;;10.63;;
5345;SDS011;2695;49.444;11.054;2023-02-15T08:58:50;18.90;;;10.00;;
5345;SDS011;2695;49.444;11.054;2023-02-15T09:01:20;19.53;;;10.33;;
5345;SDS011;2695;49.444;11.054;2023-02-15T09:03:51;22.07;;;10.80;;
5345;SDS011;2695;49.444;11.054;2023-02-15T09:06:23;15.67;;;9.27;;
5345;SDS011;2695;49.444;11.054;2023-02-15T09:08:52;23.53;;;10.53;;
5345;SDS011;2695;49.444;11.054;2023-02-15T09:11:21;18.83;;;9.60;;
5345;SDS011;2695;49.444;11.054;2023-02-15T09:13:51;22.43;;;10.63;;
5345;SDS011;2695;49.444;11.054;2023-02-15T09:16:21;21.17;;;10.27;;
5345;SDS011;2695;49.444;11.054;2023-02-15T09:18:51;23.50;;;11.30;;
5345;SDS011;2695;49.444;11.054;2023-02-15T09:21:20;16.73;;;10.23;;
5345;SDS011;2695;49.444;11.054;2023-02-15T09:23:54;17.80;;;10.30;;
5345;SDS011;2695;49.444;11.054;2023-02-15T09:26:24;20.43;;;11.53;;
5345;SDS011;2695;49.444;11.054;2023-02-15T09:28:53;19.03;;;9.30;;
5345;SDS011;2695;49.444;11.054;2023-02-15T09:31:23;17.13;;;9.10;;
5345;SDS011;2695;49.444;11.054;2023-02-15T09:33:53;19.70;;;10.20;;
5345;SDS011;2695;49.444;11.054;2023-02-15T09:36:21;20.13;;;9.83;;
5345;SDS011;2695;49.444;11.054;2023-02-15T09:38:54;23.70;;;11.20;;
5345;SDS011;2695;49.444;11.054;2023-02-15T09:41:28;20.70;;;9.77;;
5345;SDS011;2695;49.444;11.054;2023-02-15T09:44:09;19.60;;;9.30;;
5345;SDS011;2695;49.444;11.054;2023-02-15T09:46:49;14.53;;;9.27;;
5345;SDS011;2695;49.444;11.054;2023-02-15T09:49:35;20.97;;;9.43;;
5345;SDS011;2695;49.444;11.054;2023-02-15T09:52:23;17.83;;;9.43;;
5345;SDS011;2695;49.444;11.054;2023-02-15T09:55:22;17.43;;;9.27;;
5345;SDS011;2695;49.444;11.054;2023-02-15T09:58:01;17.43;;;10.30;;
5345;SDS011;2695;49.444;11.054;2023-02-15T10:00:37;22.90;;;10.20;;
5345;SDS011;2695;49.444;11.054;2023-02-15T10:03:19;15.77;;;8.47;;
5345;SDS011;2695;49.444;11.054;2023-02-15T10:05:58;18.20;;;9.30;;
5345;SDS011;2695;49.444;11.054;2023-02-15T10:12:01;17.40;;;9.30;;
5345;SDS011;2695;49.444;11.054;2023-02-15T10:14:39;17.50;;;8.77;;
5345;SDS011;2695;49.444;11.054;2023-02-15T10:17:29;17.07;;;9.50;;
5345;SDS011;2695;49.444;11.054;2023-02-15T10:20:13;21.77;;;10.30;;
5345;SDS011;2695;49.444;11.054;2023-02-15T10:22:56;17.50;;;10.10;;
5345;SDS011;2695;49.444;11.054;2023-02-15T10:25:39;16.77;;;9.70;;
5345;SDS011;2695;49.444;11.054;2023-02-15T10:28:14;18.37;;;9.63;;
5345;SDS011;2695;49.444;11.054;2023-02-15T10:30:46;18.70;;;11.07;;
5345;SDS011;2695;49.444;11.054;2023-02-15T10:33:23;21.07;;;9.43;;
5345;SDS011;2695;49.444;11.054;2023-02-15T10:36:07;17.53;;;9.47;;
5345;SDS011;2695;49.444;11.054;2023-02-15T10:38:48;24.53;;;10.27;;
5345;SDS011;2695;49.444;11.054;2023-02-15T10:41:27;17.53;;;9.23;;
5345;SDS011;2695;49.444;11.054;2023-02-15T10:44:12;18.87;;;11.03;;
5345;SDS011;2695;49.444;11.054;2023-02-15T10:46:56;17.40;;;9.73;;
5345;SDS011;2695;49.444;11.054;2023-02-15T10:49:48;19.73;;;10.00;;
5345;SDS011;2695;49.444;11.054;2023-02-15T10:52:36;20.07;;;10.97;;
5345;SDS011;2695;49.444;11.054;2023-02-15T10:55:22;15.30;;;9.20;;
5345;SDS011;2695;49.444;11.054;2023-02-15T10:58:05;15.80;;;8.77;;
5345;SDS011;2695;49.444;11.054;2023-02-15T11:00:44;16.37;;;9.20;;
5345;SDS011;2695;49.444;11.054;2023-02-15T11:03:29;14.83;;;9.13;;
5345;SDS011;2695;49.444;11.054;2023-02-15T11:06:08;20.23;;;8.70;;
5345;SDS011;2695;49.444;11.054;2023-02-15T11:08:39;15.73;;;9.40;;
5345;SDS011;2695;49.444;11.054;2023-02-15T11:11:10;19.63;;;10.43;;
5345;SDS011;2695;49.444;11.054;2023-02-15T11:13:43;13.93;;;9.20;;
5345;SDS011;2695;49.444;11.054;2023-02-15T11:16:16;16.87;;;10.10;;
5345;SDS011;2695;49.444;11.054;2023-02-15T11:18:48;18.23;;;8.00;;
5345;SDS011;2695;49.444;11.054;2023-02-15T11:21:22;17.30;;;9.57;;
5345;SDS011;2695;49.444;11.054;2023-02-15T11:23:51;17.70;;;9.40;;
5345;SDS011;2695;49.444;11.054;2023-02-15T11:26:21;15.47;;;9.87;;
5345;SDS011;2695;49.444;11.054;2023-02-15T11:28:56;16.07;;;10.40;;
5345;SDS011;2695;49.444;11.054;2023-02-15T11:31:32;17.10;;;10.27;;
5345;SDS011;2695;49.444;11.054;2023-02-15T11:34:12;15.80;;;10.10;;
5345;SDS011;2695;49.444;11.054;2023-02-15T11:36:45;18.00;;;9.60;;
5345;SDS011;2695;49.444;11.054;2023-02-15T11:39:17;27.53;;;11.80;;
5345;SDS011;2695;49.444;11.054;2023-02-15T11:41:49;16.53;;;9.63;;
5345;SDS011;2695;49.444;11.054;2023-02-15T11:44:20;15.40;;;9.13;;
5345;SDS011;2695;49.444;11.054;2023-02-15T11:46:53;19.90;;;12.80;;
5345;SDS011;2695;49.444;11.054;2023-02-15T11:49:23;16.57;;;10.20;;
5345;SDS011;2695;49.444;11.054;2023-02-15T11:51:55;24.70;;;12.10;;
5345;SDS011;2695;49.444;11.054;2023-02-15T11:54:26;18.00;;;10.63;;
5345;SDS011;2695;49.444;11.054;2023-02-15T11:56:56;16.07;;;10.10;;
5345;SDS011;2695;49.444;11.054;2023-02-15T11:59:31;14.97;;;10.37;;
5345;SDS011;2695;49.444;11.054;2023-02-15T12:02:07;18.37;;;12.27;;
5345;SDS011;2695;49.444;11.054;2023-02-15T12:04:44;16.73;;;10.77;;
5345;SDS011;2695;49.444;11.054;2023-02-15T12:07:20;20.70;;;10.63;;
5345;SDS011;2695;49.444;11.054;2023-02-15T12:09:52;18.50;;;12.10;;
5345;SDS011;2695;49.444;11.054;2023-02-15T12:12:28;21.60;;;11.53;;
5345;SDS011;2695;49.444;11.054;2023-02-15T12:14:57;18.37;;;11.87;;
5345;SDS011;2695;49.444;11.054;2023-02-15T12:17:29;17.30;;;11.67;;
5345;SDS011;2695;49.444;11.054;2023-02-15T12:20:00;25.40;;;12.10;;
5345;SDS011;2695;49.444;11.054;2023-02-15T12:22:31;28.00;;;13.77;;
5345;SDS011;2695;49.444;11.054;2023-02-15T12:25:04;17.73;;;11.93;;
5345;SDS011;2695;49.444;11.054;2023-02-15T12:27:48;18.10;;;12.80;;
5345;SDS011;2695;49.444;11.054;2023-02-15T12:30:17;21.43;;;11.17;;
5345;SDS011;2695;49.444;11.054;2023-02-15T12:32:59;22.07;;;11.87;;
5345;SDS011;2695;49.444;11.054;2023-02-15T12:35:35;22.63;;;12.23;;
5345;SDS011;2695;49.444;11.054;2023-02-15T12:38:05;21.03;;;12.17;;
5345;SDS011;2695;49.444;11.054;2023-02-15T12:40:56;25.03;;;13.10;;
5345;SDS011;2695;49.444;11.054;2023-02-15T12:43:27;61.37;;;33.00;;
5345;SDS011;2695;49.444;11.054;2023-02-15T12:46:13;22.20;;;11.80;;
5345;SDS011;2695;49.444;11.054;2023-02-15T12:48:50;17.40;;;11.27;;
5345;SDS011;2695;49.444;11.054;2023-02-15T12:51:44;17.70;;;10.90;;
5345;SDS011;2695;49.444;11.054;2023-02-15T12:54:22;21.60;;;11.97;;
5345;SDS011;2695;49.444;11.054;2023-02-15T12:59:59;20.33;;;11.50;;
5345;SDS011;2695;49.444;11.054;2023-02-15T13:02:31;22.80;;;12.13;;
5345;SDS011;2695;49.444;11.054;2023-02-15T13:05:17;23.10;;;12.83;;
5345;SDS011;2695;49.444;11.054;2023-02-15T13:07:50;22.73;;;13.07;;
5345;SDS011;2695;49.444;11.054;2023-02-15T13:10:22;19.07;;;11.10;;
5345;SDS011;2695;49.444;11.054;2023-02-15T13:12:52;22.63;;;12.57;;
5345;SDS011;2695;49.444;11.054;2023-02-15T13:15:24;24.37;;;14.50;;
5345;SDS011;2695;49.444;11.054;2023-02-15T13:17:56;29.23;;;14.93;;
5345;SDS011;2695;49.444;11.054;2023-02-15T13:20:26;19.63;;;11.67;;
5345;SDS011;2695;49.444;11.054;2023-02-15T13:22:57;28.20;;;14.37;;
5345;SDS011;2695;49.444;11.054;2023-02-15T13:25:28;23.43;;;13.77;;
5345;SDS011;2695;49.444;11.054;2023-02-15T13:28:01;24.00;;;13.70;;
5345;SDS011;2695;49.444;11.054;2023-02-15T13:30:31;27.17;;;12.67;;
5345;SDS011;2695;49.444;11.054;2023-02-15T13:33:03;20.90;;;13.43;;
5345;SDS011;2695;49.444;11.054;2023-02-15T13:35:36;26.23;;;16.20;;
5345;SDS011;2695;49.444;11.054;2023-02-15T13:38:15;30.50;;;16.13;;
5345;SDS011;2695;49.444;11.054;2023-02-15T13:40:52;28.60;;;14.37;;
5345;SDS011;2695;49.444;11.054;2023-02-15T13:43:25;31.57;;;13.83;;
5345;SDS011;2695;49.444;11.054;2023-02-15T13:46:06;23.87;;;13.73;;
5345;SDS011;2695;49.444;11.054;2023-02-15T13:48:49;23.50;;;13.70;;
5345;SDS011;2695;49.444;11.054;2023-02-15T13:51:29;22.87;;;13.00;;
5345;SDS011;2695;49.444;11.054;2023-02-15T14:00:03;25.57;;;15.13;;
5345;SDS011;2695;49.444;11.054;2023-02-15T14:02:52;29.40;;;14.63;;
5345;SDS011;2695;49.444;11.054;2023-02-15T14:05:42;35.30;;;16.27;;
5345;SDS011;2695;49.444;11.054;2023-02-15T14:08:27;29.47;;;15.33;;
5345;SDS011;2695;49.444;11.054;2023-02-15T14:11:08;26.93;;;16.13;;
5345;SDS011;2695;49.444;11.054;2023-02-15T14:13:52;26.37;;;15.60;;
5345;SDS011;2695;49.444;11.054;2023-02-15T14:16:36;28.97;;;16.77;;
5345;SDS011;2695;49.444;11.054;2023-02-15T14:19:32;29.67;;;16.43;;
5345;SDS011;2695;49.444;11.054;2023-02-15T14:22:09;27.87;;;16.27;;
5345;SDS011;2695;49.444;11.054;2023-02-15T14:24:50;27.53;;;15.30;;
5345;SDS011;2695;49.444;11.054;2023-02-15T14:27:34;26.73;;;15.30;;
5345;SDS011;2695;49.444;11.054;2023-02-15T14:30:14;24.90;;;15.90;;
5345;SDS011;2695;49.444;11.054;2023-02-15T14:32:48;27.87;;;16.33;;
5345;SDS011;2695;49.444;11.054;2023-02-15T14:35:19;31.97;;;16.07;;
5345;SDS011;2695;49.444;11.054;2023-02-15T14:37:50;38.13;;;17.33;;
5345;SDS011;2695;49.444;11.054;2023-02-15T14:40:31;30.40;;;17.67;;
5345;SDS011;2695;49.444;11.054;2023-02-15T14:43:25;25.03;;;15.37;;
5345;SDS011;2695;49.444;11.054;2023-02-15T14:46:07;34.37;;;17.67;;
5345;SDS011;2695;49.444;11.054;2023-02-15T14:48:45;30.77;;;16.23;;
5345;SDS011;2695;49.444;11.054;2023-02-15T14:57:29;28.60;;;16.30;;
5345;SDS011;2695;49.444;11.054;2023-02-15T15:02:57;30.90;;;18.07;;
5345;SDS011;2695;49.444;11.054;2023-02-15T15:05:28;27.33;;;15.20;;
5345;SDS011;2695;49.444;11.054;2023-02-15T15:08:00;27.80;;;16.90;;
5345;SDS011;2695;49.444;11.054;2023-02-15T15:10:35;31.40;;;17.20;;
5345;SDS011;2695;49.444;11.054;2023-02-15T15:16:29;30.83;;;16.40;;
5345;SDS011;2695;49.444;11.054;2023-02-15T15:19:12;31.40;;;17.10;;
5345;SDS011;2695;49.444;11.054;2023-02-15T15:22:18;33.47;;;18.20;;
5345;SDS011;2695;49.444;11.054;2023-02-15T15:24:48;30.40;;;17.40;;
5345;SDS011;2695;49.444;11.054;2023-02-15T15:40:16;34.63;;;18.20;;
5345;SDS011;2695;49.444;11.054;2023-02-15T15:43:13;31.80;;;17.17;;
5345;SDS011;2695;49.444;11.054;2023-02-15T15:46:23;33.27;;;18.53;;
5345;SDS011;2695;49.444;11.054;2023-02-15T15:49:10;28.10;;;15.27;;
5345;SDS011;2695;49.444;11.054;2023-02-15T15:51:42;29.00;;;16.87;;
5345;SDS011;2695;49.444;11.054;2023-02-15T15:54:14;30.67;;;17.77;;
5345;SDS011;2695;49.444;11.054;2023-02-15T15:56:46;36.53;;;18.20;;
5345;SDS011;2695;49.444;11.054;2023-02-15T15:59:18;36.20;;;17.63;;
5345;SDS011;2695;49.444;11.054;2023-02-15T16:01:48;34.73;;;18.03;;
5345;SDS011;2695;49.444;11.054;2023-02-15T16:04:24;26.17;;;15.93;;